Wilberforce, Canada
Current Conditions -  °F | °C
As of 8:00 AM on Thursday 23 Oct 2014 (Local Time) from CYQA Reporting Station
Clear Clear  
Wind Chill: 30°   Ceiling: Unl
Heat Index: 30°   Visibility: 9mi
Dew Point: 30°   Wind: 2mph
Humidity: 100%   Direction: 330°NNW
Pressure: 30.19"   Gusts: NA
Location:  45.03°N, 78.22°W
Report Text: CYQA 231200Z AUTO 33002KT 9SM CLR M01/M01 A3019 RMK ICG PAST HR SLP233
Loading
Personal Weather Stations






























Interactive Weather Map
Tropical Storm Tracking
New forecast layout! Learn more

10-Day Weather Forecast

Advertisements
Track Severe Weather on mobile